TimeCDT,TemperatureF,Dew PointF,Humidity,Sea Level PressureIn,VisibilityMPH,Wind Direction,Wind SpeedMPH,Gust SpeedMPH,PrecipitationIn,Events,Conditions,WindDirDegrees,DateUTC
12:53 AM,75.9,70.0,82,30.01,10.0,SSW,4.6,-,N/A,,Clear,200,2014-08-17 05:53:00
1:53 AM,75.2,69.8,83,30.01,8.0,Calm,Calm,-,N/A,,Clear,0,2014-08-17 06:53:00
2:53 AM,75.0,71.1,87,30.01,7.0,SSW,3.5,-,N/A,,Clear,210,2014-08-17 07:53:00
3:53 AM,73.9,70.0,87,30.01,6.0,Calm,Calm,-,N/A,,Clear,0,2014-08-17 08:53:00
4:53 AM,73.0,70.0,90,30.01,5.0,Calm,Calm,-,N/A,,Clear,0,2014-08-17 09:53:00
5:53 AM,73.0,70.0,90,30.03,5.0,Calm,Calm,-,N/A,,Clear,0,2014-08-17 10:53:00
6:53 AM,73.9,71.1,91,30.04,3.0,Calm,Calm,-,N/A,,Partly Cloudy,0,2014-08-17 11:53:00
7:53 AM,78.1,73.0,84,30.05,9.0,SW,4.6,-,N/A,,Clear,220,2014-08-17 12:53:00
8:53 AM,82.9,73.9,74,30.06,10.0,West,9.2,-,N/A,,Partly Cloudy,260,2014-08-17 13:53:00
9:53 AM,84.0,73.9,72,30.06,10.0,West,5.8,-,N/A,,Overcast,270,2014-08-17 14:53:00
10:53 AM,84.0,73.9,72,30.04,10.0,WNW,3.5,-,N/A,,Mostly Cloudy,290,2014-08-17 15:53:00
11:53 AM,91.0,73.9,57,30.01,10.0,SW,8.1,-,N/A,,Partly Cloudy,220,2014-08-17 16:53:00
12:24 PM,89.6,71.6,55,30.01,10.0,West,6.9,-,0.00,Thunderstorm,Mostly Cloudy,260,2014-08-17 17:24:00
12:43 PM,91.4,73.4,55,30.01,10.0,SW,8.1,-,0.00,,Partly Cloudy,230,2014-08-17 17:43:00
12:53 PM,91.0,73.0,55,30.00,10.0,SSW,9.2,-,0.00,,Partly Cloudy,200,2014-08-17 17:53:00
1:53 PM,91.0,73.0,55,29.99,10.0,SW,10.4,-,N/A,,Scattered Clouds,220,2014-08-17 18:53:00
2:53 PM,93.0,71.1,49,29.98,10.0,SW,8.1,-,N/A,,Clear,230,2014-08-17 19:53:00
3:02 PM,93.2,73.4,52,29.99,10.0,South,10.4,-,N/A,Thunderstorm,Clear,190,2014-08-17 20:02:00
3:17 PM,91.4,71.6,52,29.99,10.0,SW,5.8,-,N/A,Thunderstorm,Partly Cloudy,230,2014-08-17 20:17:00
3:53 PM,84.0,70.0,63,29.99,9.0,SW,11.5,17.3,N/A,Thunderstorm,Thunderstorm,230,2014-08-17 20:53:00
4:22 PM,78.8,73.4,83,30.03,1.8,SW,11.5,21.9,0.09,Rain-Thunderstorm,Heavy Rain,220,2014-08-17 21:22:00
4:30 PM,75.2,71.6,89,30.02,1.0,SSW,10.4,20.7,0.23,Rain,Heavy Rain,210,2014-08-17 21:30:00
4:37 PM,75.2,73.4,94,30.02,2.0,South,10.4,-,0.27,Rain,Rain,180,2014-08-17 21:37:00
4:45 PM,77.0,73.4,89,30.00,7.0,South,5.8,-,0.28,Rain,Light Rain,170,2014-08-17 21:45:00
4:53 PM,77.0,73.4,89,30.00,10.0,SE,4.6,-,N/A,Rain,Light Rain,130,2014-08-17 21:53:00
5:53 PM,78.1,73.0,84,29.96,10.0,SSW,5.8,-,0.00,,Clear,200,2014-08-17 22:53:00
6:53 PM,79.0,73.0,82,29.96,10.0,SSW,4.6,-,N/A,,Clear,210,2014-08-17 23:53:00
7:53 PM,79.0,75.0,88,29.98,10.0,Calm,Calm,-,N/A,,Clear,0,2014-08-18 00:53:00
8:53 PM,78.1,73.9,87,30.01,10.0,SSW,3.5,-,N/A,,Clear,210,2014-08-18 01:53:00
9:53 PM,77.0,72.0,84,30.00,10.0,SW,3.5,-,N/A,,Clear,230,2014-08-18 02:53:00
10:53 PM,75.0,71.1,87,30.00,10.0,Calm,Calm,-,N/A,,Clear,0,2014-08-18 03:53:00
11:53 PM,75.0,71.1,87,29.99,10.0,Calm,Calm,-,N/A,,Clear,0,2014-08-18 04:53:00